Terminal Aerodrome Forecast
Issued by NWS

Home | Current Version | Previous Version | Text Only | Print | Product List | Glossary On
Versions: 1 2 3 4 5 6 7 8 9 10 11 12 13 14 15 16 17 18 19 20 21 22 23 24 25 26 27 28
000
FTUS41 KBOX 282330
TAFFMH
TAF
KFMH 282330Z 2900/2924 22004KT P6SM FEW050
     FM290200 18004KT P6SM FEW250
     FM290600 00000KT P6SM SKC
     FM291400 25006KT P6SM FEW250
     FM291700 22010KT P6SM FEW250=

USA.gov is the U.S. government's official web portal to all federal, state and local government web resources and services.